Terminal Aerodrome Forecast
Issued by NWS

Home | Current Version | Previous Version | Text Only | Print | Product List | Glossary On
Versions: 1 2 3 4 5 6 7 8 9 10 11 12 13 14 15 16 17 18 19 20 21 22
000
FTUS46 KLOX 101139
TAFLGB
TAF
KLGB 101139Z 1012/1112 VRB03KT 5SM BR OVC015
     FM101600 VRB03KT P6SM OVC015
     FM102000 21007KT P6SM BKN025
     FM110000 28008KT P6SM BKN025
     FM110400 VRB03KT P6SM OVC015=

USA.gov is the U.S. government's official web portal to all federal, state and local government web resources and services.